createdAt,value
2023-04-26T00:01:07.246Z,5.57
2023-04-26T00:03:34.742Z,4.83
2023-04-26T00:06:05.766Z,3.93
2023-04-26T00:08:33.263Z,4.77
2023-04-26T00:11:00.630Z,5.20
2023-04-26T00:13:27.981Z,4.47
2023-04-26T00:15:55.288Z,4.63
2023-04-26T00:18:22.581Z,3.83
2023-04-26T00:20:49.930Z,4.27
2023-04-26T00:23:17.537Z,3.63
2023-04-26T00:25:44.811Z,4.53
2023-04-26T00:28:12.802Z,4.27
2023-04-26T00:30:42.518Z,4.93
2023-04-26T00:33:09.849Z,4.43
2023-04-26T00:35:38.490Z,4.67
2023-04-26T00:38:05.686Z,4.30
2023-04-26T00:40:36.277Z,4.50
2023-04-26T00:43:04.572Z,4.20
2023-04-26T00:45:32.417Z,4.87
2023-04-26T00:48:03.724Z,4.37
2023-04-26T00:50:32.033Z,4.20
2023-04-26T00:53:00.806Z,4.07
2023-04-26T00:55:28.184Z,4.70
2023-04-26T00:57:55.748Z,4.47
2023-04-26T01:00:23.143Z,3.50
2023-04-26T01:02:51.427Z,4.33
2023-04-26T01:05:19.097Z,5.07
2023-04-26T01:07:47.161Z,4.00
2023-04-26T01:10:14.423Z,4.03
2023-04-26T01:12:41.749Z,3.83
2023-04-26T01:15:10.960Z,4.80
2023-04-26T01:17:42.123Z,3.83
2023-04-26T01:20:11.486Z,4.23
2023-04-26T01:22:38.801Z,4.23
2023-04-26T01:25:09.801Z,3.93
2023-04-26T01:27:37.254Z,3.93
2023-04-26T01:30:05.748Z,3.77
2023-04-26T01:32:32.991Z,3.70
2023-04-26T01:35:01.204Z,3.90
2023-04-26T01:37:28.568Z,3.60
2023-04-26T01:39:56.114Z,3.60
2023-04-26T01:42:23.548Z,4.00
2023-04-26T01:44:51.714Z,3.80
2023-04-26T01:47:19.619Z,4.40
2023-04-26T01:49:47.160Z,3.97
2023-04-26T01:52:14.932Z,4.20
2023-04-26T01:54:42.475Z,3.97
2023-04-26T01:57:10.418Z,4.13
2023-04-26T01:59:37.649Z,4.77
2023-04-26T02:02:05.821Z,4.37
2023-04-26T02:04:33.338Z,5.00
2023-04-26T02:07:00.555Z,4.20
2023-04-26T02:09:28.008Z,3.73
2023-04-26T02:11:55.183Z,4.70
2023-04-26T02:14:22.325Z,5.20
2023-04-26T02:16:49.556Z,5.53
2023-04-26T02:19:16.779Z,5.00
2023-04-26T02:21:54.780Z,4.27
2023-04-26T02:24:22.429Z,4.67
2023-04-26T02:26:49.812Z,4.50
2023-04-26T02:29:17.105Z,5.67
2023-04-26T02:31:44.416Z,3.93
2023-04-26T02:34:12.879Z,3.93
2023-04-26T02:36:40.570Z,5.43
2023-04-26T02:39:07.974Z,4.63
2023-04-26T02:41:35.195Z,4.23
2023-04-26T02:44:02.468Z,4.30
2023-04-26T02:46:30.059Z,3.83
2023-04-26T02:48:57.293Z,4.63
2023-04-26T02:51:24.910Z,4.67
2023-04-26T02:53:52.181Z,4.07
2023-04-26T02:56:19.978Z,3.90
2023-04-26T02:58:47.680Z,3.87
2023-04-26T03:01:15.465Z,3.77
2023-04-26T03:03:43.594Z,3.97
2023-04-26T03:06:14.419Z,3.90
2023-04-26T03:08:42.130Z,3.77
2023-04-26T03:11:09.360Z,4.80
2023-04-26T03:13:37.902Z,4.30
2023-04-26T03:16:05.456Z,3.53
2023-04-26T03:18:32.728Z,3.83
2023-04-26T03:21:00.067Z,3.90
2023-04-26T03:23:29.015Z,4.00
2023-04-26T03:25:56.641Z,4.40
2023-04-26T03:28:24.173Z,4.07
2023-04-26T03:30:52.049Z,4.30
2023-04-26T03:33:19.339Z,4.20
2023-04-26T03:35:49.491Z,4.73
2023-04-26T03:38:19.411Z,4.60
2023-04-26T03:40:46.948Z,4.57
2023-04-26T03:43:14.135Z,4.00
2023-04-26T03:45:41.624Z,5.33
2023-04-26T03:48:09.164Z,4.27
2023-04-26T03:50:36.688Z,3.80
2023-04-26T03:53:04.139Z,4.40
2023-04-26T03:55:31.483Z,4.20
2023-04-26T03:57:59.082Z,3.53
2023-04-26T04:00:29.349Z,4.10
2023-04-26T04:02:56.931Z,4.07
2023-04-26T04:05:25.083Z,4.13
2023-04-26T04:07:52.953Z,4.00
2023-04-26T04:10:20.243Z,4.30
2023-04-26T04:12:47.683Z,4.10
2023-04-26T04:15:15.461Z,3.80
2023-04-26T04:17:42.991Z,3.60
2023-04-26T04:20:11.402Z,2.90
2023-04-26T04:22:42.010Z,3.97
2023-04-26T04:25:14.375Z,3.60
2023-04-26T04:27:48.605Z,3.30
2023-04-26T04:30:16.625Z,3.87
2023-04-26T04:32:45.397Z,3.80
2023-04-26T04:35:13.504Z,3.07
2023-04-26T04:37:40.724Z,3.40
2023-04-26T04:40:11.967Z,4.00
2023-04-26T04:42:39.410Z,4.30
2023-04-26T04:45:07.434Z,3.37
2023-04-26T04:47:38.115Z,3.70
2023-04-26T04:50:07.349Z,3.23
2023-04-26T04:52:34.906Z,3.77
2023-04-26T04:55:02.266Z,4.13
2023-04-26T04:57:30.039Z,3.53
2023-04-26T04:59:58.275Z,3.50
2023-04-26T05:02:26.840Z,2.80
2023-04-26T05:04:54.918Z,3.00
2023-04-26T05:07:24.517Z,3.10
2023-04-26T05:09:51.947Z,3.60
2023-04-26T05:12:19.185Z,3.87
2023-04-26T05:14:46.409Z,2.57
2023-04-26T05:17:13.618Z,2.40
2023-04-26T05:19:43.416Z,2.83
2023-04-26T05:22:10.768Z,3.83
2023-04-26T05:24:38.755Z,30.83
2023-04-26T05:27:06.195Z,4.90
2023-04-26T05:29:33.678Z,2.80
2023-04-26T05:32:01.100Z,4.87
2023-04-26T05:34:28.534Z,2.63
2023-04-26T05:36:56.555Z,9.33
2023-04-26T05:39:24.483Z,2.83
2023-04-26T05:41:51.887Z,3.10
2023-04-26T05:44:19.050Z,2.57
2023-04-26T05:46:47.518Z,3.00
2023-04-26T05:49:15.548Z,2.60
2023-04-26T05:51:42.950Z,3.50
2023-04-26T05:54:10.316Z,2.30
2023-04-26T05:56:37.510Z,2.57
2023-04-26T05:59:04.835Z,3.13
2023-04-26T06:01:32.187Z,3.63
2023-04-26T06:04:01.206Z,3.10
2023-04-26T06:06:28.859Z,3.17
2023-04-26T06:08:56.269Z,2.17
2023-04-26T06:11:23.783Z,2.87
2023-04-26T06:13:51.241Z,2.90
2023-04-26T06:16:20.159Z,2.20
2023-04-26T06:18:47.338Z,3.10
2023-04-26T06:21:14.520Z,2.90
2023-04-26T06:23:41.903Z,16.03
2023-04-26T06:26:09.771Z,23.17
2023-04-26T06:28:36.909Z,2.30
2023-04-26T06:31:04.198Z,2.00
2023-04-26T06:33:31.538Z,2.10
2023-04-26T06:35:58.932Z,1.90
2023-04-26T06:38:26.178Z,2.07
2023-04-26T06:40:53.890Z,2.03
2023-04-26T06:43:21.445Z,2.37
2023-04-26T06:45:49.156Z,4.30
2023-04-26T06:48:16.865Z,2.90
2023-04-26T06:50:44.142Z,2.53
2023-04-26T06:53:11.659Z,2.90
2023-04-26T06:55:38.838Z,2.90
2023-04-26T06:58:06.180Z,2.70
2023-04-26T07:00:33.434Z,1.60
2023-04-26T07:03:01.135Z,1.73
2023-04-26T07:05:28.397Z,2.30
2023-04-26T07:07:56.008Z,2.77
2023-04-26T07:10:23.652Z,3.10
2023-04-26T07:12:50.811Z,2.70
2023-04-26T07:15:18.162Z,2.00
2023-04-26T07:17:45.568Z,2.47
2023-04-26T07:20:15.880Z,3.60
2023-04-26T07:22:43.186Z,2.23
2023-04-26T07:25:10.583Z,2.47
2023-04-26T07:27:39.893Z,2.20
2023-04-26T07:30:07.827Z,2.53
2023-04-26T07:32:35.432Z,1.60
2023-04-26T07:35:07.604Z,1.93
2023-04-26T07:37:35.022Z,1.90
2023-04-26T07:40:02.362Z,2.47
2023-04-26T07:42:29.543Z,2.20
2023-04-26T07:44:56.858Z,2.00
2023-04-26T07:47:24.885Z,1.50
2023-04-26T07:49:54.957Z,1.60
2023-04-26T07:52:22.894Z,1.93
2023-04-26T07:54:52.133Z,1.83
2023-04-26T07:57:19.536Z,1.60
2023-04-26T07:59:46.934Z,2.63
2023-04-26T08:02:14.688Z,1.83
2023-04-26T08:04:56.170Z,1.83
2023-04-26T08:07:23.917Z,1.90
2023-04-26T08:09:51.321Z,1.23
2023-04-26T08:12:19.140Z,4.90
2023-04-26T08:14:47.374Z,1.53
2023-04-26T08:17:14.942Z,1.77
2023-04-26T08:19:42.480Z,1.43
2023-04-26T08:22:09.701Z,1.30
2023-04-26T08:24:36.988Z,2.93
2023-04-26T08:27:04.921Z,1.40
2023-04-26T08:29:32.253Z,1.60
2023-04-26T08:32:00.174Z,3.53
2023-04-26T08:34:28.573Z,1.43
2023-04-26T08:36:56.173Z,1.20
2023-04-26T08:39:23.601Z,2.20
2023-04-26T08:41:57.608Z,5.77
2023-04-26T08:44:29.684Z,2.77
2023-04-26T08:47:19.661Z,13.77
2023-04-26T08:49:54.687Z,1.70
2023-04-26T08:52:24.344Z,12.77
2023-04-26T08:54:52.485Z,3.57
2023-04-26T08:57:21.486Z,1.40
2023-04-26T08:59:49.854Z,1.53
2023-04-26T09:02:25.288Z,1.47
2023-04-26T09:04:52.897Z,2.17
2023-04-26T09:07:26.794Z,1.73
2023-04-26T09:09:59.352Z,1.57
2023-04-26T09:12:27.384Z,2.13
2023-04-26T09:14:54.786Z,1.40
2023-04-26T09:17:33.688Z,1.20
2023-04-26T09:20:01.782Z,1.10
2023-04-26T09:22:34.380Z,1.23
2023-04-26T09:25:02.781Z,1.50
2023-04-26T09:27:44.858Z,1.50
2023-04-26T09:30:20.996Z,1.20
2023-04-26T09:33:01.616Z,2.27
2023-04-26T09:35:37.126Z,1.00
2023-04-26T09:38:12.801Z,1.47
2023-04-26T09:40:41.746Z,1.00
2023-04-26T09:43:17.202Z,1.83
2023-04-26T09:45:52.477Z,1.93
2023-04-26T09:48:28.973Z,1.00
2023-04-26T09:50:59.358Z,0.93
2023-04-26T09:53:29.025Z,0.90
2023-04-26T09:55:57.284Z,1.63
2023-04-26T09:58:25.272Z,1.47
2023-04-26T10:00:52.989Z,1.90
2023-04-26T10:03:21.447Z,2.23
2023-04-26T10:05:48.990Z,1.60
2023-04-26T10:08:17.457Z,2.13
2023-04-26T10:10:46.143Z,2.67
2023-04-26T10:13:14.212Z,2.00
2023-04-26T10:15:42.412Z,1.80
2023-04-26T10:18:09.892Z,5.67
2023-04-26T10:20:43.078Z,0.80
2023-04-26T10:23:21.704Z,1.20
2023-04-26T10:25:49.958Z,3.13
2023-04-26T10:28:39.736Z,4.23
2023-04-26T10:31:08.544Z,4.83
2023-04-26T10:33:36.418Z,4.07
2023-04-26T10:36:14.001Z,1.00
2023-04-26T10:39:02.575Z,2.27
2023-04-26T10:41:36.947Z,1.23
2023-04-26T10:44:40.264Z,2.27
2023-04-26T10:47:21.599Z,2.07
2023-04-26T10:49:49.318Z,1.83
2023-04-26T10:52:24.165Z,1.70
2023-04-26T10:54:56.602Z,1.50
2023-04-26T10:57:45.099Z,1.83
2023-04-26T11:00:20.111Z,0.80
2023-04-26T11:02:52.678Z,2.20
2023-04-26T11:05:42.187Z,0.97
2023-04-26T11:08:16.125Z,0.80
2023-04-26T11:10:46.648Z,1.00
2023-04-26T11:13:13.897Z,1.40
2023-04-26T11:15:41.724Z,1.73
2023-04-26T11:18:09.029Z,0.80
2023-04-26T11:20:36.433Z,1.00
2023-04-26T11:23:04.116Z,1.20
2023-04-26T11:25:31.843Z,1.20
2023-04-26T11:28:03.571Z,1.03
2023-04-26T11:30:36.185Z,1.10
2023-04-26T11:33:06.806Z,1.27
2023-04-26T11:35:37.873Z,1.50
2023-04-26T11:38:06.021Z,1.50
2023-04-26T11:40:34.192Z,1.70
2023-04-26T11:43:04.210Z,0.77
2023-04-26T11:45:36.344Z,1.37
2023-04-26T11:48:08.928Z,0.70
2023-04-26T11:50:38.761Z,1.90
2023-04-26T11:53:08.270Z,1.03
2023-04-26T11:55:36.402Z,2.53
2023-04-26T11:58:24.584Z,7.37
2023-04-26T12:01:02.815Z,1.50
2023-04-26T12:03:38.223Z,0.93
2023-04-26T12:06:07.483Z,1.13
2023-04-26T12:08:34.719Z,1.00
2023-04-26T12:11:10.257Z,1.30
2023-04-26T12:13:40.310Z,1.10
2023-04-26T12:16:25.713Z,1.13
2023-04-26T12:18:57.373Z,1.17
2023-04-26T12:21:26.155Z,2.27
2023-04-26T12:23:54.720Z,1.80
2023-04-26T12:26:23.270Z,1.30
2023-04-26T12:28:50.727Z,1.07
2023-04-26T12:31:18.214Z,2.70
2023-04-26T12:33:45.736Z,5.87
2023-04-26T12:36:13.733Z,3.47
2023-04-26T12:38:41.541Z,2.70
2023-04-26T12:41:10.780Z,1.87
2023-04-26T12:43:38.060Z,1.13
2023-04-26T12:46:05.873Z,2.23
2023-04-26T12:48:33.320Z,1.90
2023-04-26T12:51:01.418Z,1.90
2023-04-26T12:53:28.781Z,1.00
2023-04-26T12:55:56.424Z,1.03
2023-04-26T12:58:24.188Z,0.50
2023-04-26T13:00:52.125Z,0.83
2023-04-26T13:03:19.525Z,1.00
2023-04-26T13:05:47.007Z,1.57
2023-04-26T13:08:15.676Z,3.20
2023-04-26T13:10:43.176Z,1.70
2023-04-26T13:13:10.726Z,2.20
2023-04-26T13:15:38.024Z,1.10
2023-04-26T13:18:05.551Z,1.57
2023-04-26T13:20:32.878Z,0.83
2023-04-26T13:23:00.161Z,1.90
2023-04-26T13:25:28.037Z,1.40
2023-04-26T13:27:55.765Z,1.37
2023-04-26T13:30:23.094Z,2.30
2023-04-26T13:32:50.768Z,1.43
2023-04-26T13:35:18.153Z,0.60
2023-04-26T13:37:46.549Z,1.40
2023-04-26T13:40:14.049Z,1.50
2023-04-26T13:42:41.955Z,1.60
2023-04-26T13:45:10.714Z,1.53
2023-04-26T13:47:42.504Z,0.90
2023-04-26T13:50:10.959Z,0.90
2023-04-26T13:52:40.718Z,0.90
2023-04-26T13:55:09.765Z,0.87
2023-04-26T13:57:38.705Z,1.00
2023-04-26T14:00:08.307Z,1.37
2023-04-26T14:02:35.869Z,1.60
2023-04-26T14:05:03.687Z,1.33
2023-04-26T14:07:31.251Z,1.50
2023-04-26T14:09:58.677Z,0.80
2023-04-26T14:12:26.185Z,0.97
2023-04-26T14:14:53.697Z,1.20
2023-04-26T14:17:21.091Z,1.20
2023-04-26T14:19:48.341Z,1.40
2023-04-26T14:22:17.876Z,2.40
2023-04-26T14:24:45.542Z,2.87
2023-04-26T14:27:13.181Z,1.47
2023-04-26T14:29:40.991Z,1.40
2023-04-26T14:32:08.272Z,1.30
2023-04-26T14:34:39.433Z,1.60
2023-04-26T14:37:07.389Z,1.10
2023-04-26T14:39:35.502Z,1.60
2023-04-26T14:42:04.128Z,1.00
2023-04-26T14:44:31.976Z,1.20
2023-04-26T14:46:59.290Z,1.40
2023-04-26T14:49:26.615Z,0.90
2023-04-26T14:51:54.036Z,0.70
2023-04-26T14:54:21.755Z,0.67
2023-04-26T14:56:49.284Z,1.00
2023-04-26T14:59:16.931Z,1.30
2023-04-26T15:01:44.520Z,0.87
2023-04-26T15:04:12.116Z,1.30
2023-04-26T15:06:39.902Z,1.40
2023-04-26T15:09:09.027Z,1.13
2023-04-26T15:11:36.836Z,0.97
2023-04-26T15:14:04.725Z,1.90
2023-04-26T15:16:32.368Z,1.63
2023-04-26T15:19:00.019Z,1.30
2023-04-26T15:21:29.257Z,1.70
2023-04-26T15:24:01.446Z,1.93
2023-04-26T15:26:31.306Z,1.40
2023-04-26T15:28:59.185Z,1.50
2023-04-26T15:31:26.474Z,1.27
2023-04-26T15:33:56.888Z,1.43
2023-04-26T15:36:24.620Z,1.80
2023-04-26T15:38:52.764Z,1.60
2023-04-26T15:41:20.185Z,1.60
2023-04-26T15:43:48.294Z,2.03
2023-04-26T15:46:15.910Z,1.60
2023-04-26T15:48:43.375Z,1.63
2023-04-26T15:51:10.821Z,1.93
2023-04-26T15:53:43.317Z,1.40
2023-04-26T15:56:18.175Z,1.20
2023-04-26T15:58:46.994Z,1.63
2023-04-26T16:01:16.248Z,1.23
2023-04-26T16:03:47.430Z,2.00
2023-04-26T16:06:15.724Z,1.57
2023-04-26T16:08:43.569Z,1.40
2023-04-26T16:11:11.096Z,1.83
2023-04-26T16:13:38.509Z,1.30
2023-04-26T16:16:12.068Z,2.43
2023-04-26T16:18:40.055Z,2.30
2023-04-26T16:21:11.796Z,1.57
2023-04-26T16:23:43.180Z,1.67
2023-04-26T16:26:10.673Z,1.80
2023-04-26T16:28:38.195Z,1.47
2023-04-26T16:31:07.094Z,1.60
2023-04-26T16:33:35.325Z,1.43
2023-04-26T16:36:02.727Z,1.57
2023-04-26T16:38:29.968Z,1.47
2023-04-26T16:40:58.625Z,3.53
2023-04-26T16:43:30.528Z,1.37
2023-04-26T16:46:05.645Z,1.70
2023-04-26T16:48:35.116Z,1.40
2023-04-26T16:51:06.382Z,2.07
2023-04-26T16:53:34.641Z,2.70
2023-04-26T16:56:02.155Z,1.80
2023-04-26T16:58:29.434Z,1.50
2023-04-26T17:00:56.892Z,2.87
2023-04-26T17:03:24.998Z,1.60
2023-04-26T17:05:52.653Z,1.40
2023-04-26T17:08:20.701Z,2.80
2023-04-26T17:10:52.154Z,1.90
2023-04-26T17:13:21.396Z,2.13
2023-04-26T17:15:48.958Z,1.90
2023-04-26T17:18:16.412Z,2.00
2023-04-26T17:20:43.724Z,2.70
2023-04-26T17:23:11.923Z,1.90
2023-04-26T17:25:39.318Z,2.63
2023-04-26T17:28:06.662Z,2.30
2023-04-26T17:30:33.878Z,3.57
2023-04-26T17:33:04.091Z,3.97
2023-04-26T17:35:31.537Z,2.90
2023-04-26T17:37:58.779Z,2.57
2023-04-26T17:40:26.011Z,2.33
2023-04-26T17:42:53.590Z,2.93
2023-04-26T17:45:20.829Z,2.97
2023-04-26T17:47:48.065Z,4.13
2023-04-26T17:50:16.361Z,3.20
2023-04-26T17:52:43.791Z,3.13
2023-04-26T17:55:11.739Z,3.33
2023-04-26T17:57:39.201Z,2.43
2023-04-26T18:00:07.377Z,2.43
2023-04-26T18:02:36.483Z,2.50
2023-04-26T18:05:05.153Z,3.10
2023-04-26T18:07:32.316Z,1.93
2023-04-26T18:09:59.914Z,2.97
2023-04-26T18:12:30.914Z,3.03
2023-04-26T18:14:58.581Z,4.27
2023-04-26T18:17:27.328Z,3.13
2023-04-26T18:19:54.638Z,3.17
2023-04-26T18:22:27.744Z,3.40
2023-04-26T18:24:55.561Z,3.43
2023-04-26T18:27:22.818Z,2.87
2023-04-26T18:29:50.305Z,5.27
2023-04-26T18:32:17.753Z,5.40
2023-04-26T18:34:45.153Z,5.40
2023-04-26T18:37:12.970Z,4.40
2023-04-26T18:39:40.417Z,3.57
2023-04-26T18:42:08.700Z,4.50
2023-04-26T18:44:40.335Z,4.30
2023-04-26T18:47:12.333Z,5.77
2023-04-26T18:49:40.422Z,5.93
2023-04-26T18:52:09.100Z,4.47
2023-04-26T18:54:41.086Z,3.07
2023-04-26T18:57:12.706Z,2.87
2023-04-26T18:59:43.284Z,2.23
2023-04-26T19:02:11.795Z,2.07
2023-04-26T19:04:39.392Z,2.50
2023-04-26T19:07:07.225Z,3.20
2023-04-26T19:09:43.227Z,3.00
2023-04-26T19:12:18.547Z,2.50
2023-04-26T19:14:46.017Z,2.73
2023-04-26T19:17:13.708Z,2.20
2023-04-26T19:19:40.985Z,2.90
2023-04-26T19:22:08.450Z,2.83
2023-04-26T19:24:36.020Z,3.63
2023-04-26T19:27:03.847Z,7.47
2023-04-26T19:29:31.300Z,5.50
2023-04-26T19:32:00.449Z,4.47
2023-04-26T19:34:28.436Z,4.80
2023-04-26T19:36:55.912Z,5.10
2023-04-26T19:39:23.857Z,5.60
2023-04-26T19:41:52.117Z,5.10
2023-04-26T19:44:20.685Z,3.60
2023-04-26T19:46:48.079Z,2.77
2023-04-26T19:49:15.493Z,2.70
2023-04-26T19:51:42.615Z,2.87
2023-04-26T19:54:10.159Z,3.10
2023-04-26T19:56:37.455Z,3.33
2023-04-26T19:59:04.938Z,3.30
2023-04-26T20:01:32.568Z,3.10
2023-04-26T20:04:00.654Z,3.83
2023-04-26T20:06:28.547Z,3.20
2023-04-26T20:08:56.427Z,5.87
2023-04-26T20:11:24.159Z,4.90
2023-04-26T20:13:51.983Z,5.03
2023-04-26T20:16:20.368Z,3.70
2023-04-26T20:18:47.876Z,5.80
2023-04-26T20:21:15.083Z,22.90
2023-04-26T20:23:44.350Z,17.47
2023-04-26T20:26:12.055Z,20.53
2023-04-26T20:28:40.022Z,21.40
2023-04-26T20:31:07.609Z,8.83
2023-04-26T20:33:34.903Z,17.47
2023-04-26T20:36:02.160Z,10.93
2023-04-26T20:38:29.427Z,16.87
2023-04-26T20:40:56.943Z,25.33
2023-04-26T20:43:24.764Z,42.97
2023-04-26T20:45:52.160Z,19.93
2023-04-26T20:48:19.363Z,15.60
2023-04-26T20:50:47.306Z,30.60
2023-04-26T20:53:14.426Z,29.00
2023-04-26T20:55:42.088Z,48.70
2023-04-26T20:58:09.621Z,49.90
2023-04-26T21:00:36.791Z,47.33
2023-04-26T21:03:04.794Z,39.60
2023-04-26T21:05:32.158Z,48.90
2023-04-26T21:07:59.347Z,53.63
2023-04-26T21:10:26.508Z,64.87
2023-04-26T21:12:53.753Z,77.87
2023-04-26T21:15:21.344Z,78.13
2023-04-26T21:17:48.541Z,75.57
2023-04-26T21:20:16.053Z,32.83
2023-04-26T21:22:43.297Z,39.53
2023-04-26T21:25:13.214Z,34.47
2023-04-26T21:27:41.346Z,30.40
2023-04-26T21:30:09.234Z,25.87
2023-04-26T21:32:38.140Z,28.80
2023-04-26T21:35:05.612Z,27.93
2023-04-26T21:37:32.988Z,28.10
2023-04-26T21:40:03.804Z,18.77
2023-04-26T21:42:31.877Z,17.77
2023-04-26T21:44:59.072Z,16.33
2023-04-26T21:47:26.728Z,24.07
2023-04-26T21:49:53.987Z,20.07
2023-04-26T21:52:21.324Z,19.50
2023-04-26T21:54:49.422Z,25.00
2023-04-26T21:57:17.361Z,27.20
2023-04-26T21:59:44.832Z,38.80
2023-04-26T22:02:12.140Z,38.70
2023-04-26T22:04:39.334Z,31.73
2023-04-26T22:07:06.836Z,30.27
2023-04-26T22:09:33.981Z,26.70
2023-04-26T22:12:02.544Z,21.70
2023-04-26T22:14:30.129Z,23.73
2023-04-26T22:16:57.409Z,16.67
2023-04-26T22:19:24.813Z,12.97
2023-04-26T22:21:54.403Z,12.47
2023-04-26T22:24:23.042Z,12.10
2023-04-26T22:26:50.390Z,12.77
2023-04-26T22:29:17.743Z,10.23
2023-04-26T22:31:45.363Z,10.27
2023-04-26T22:34:12.771Z,8.73
2023-04-26T22:36:40.215Z,11.53
2023-04-26T22:39:07.528Z,14.77
2023-04-26T22:41:34.797Z,14.50
2023-04-26T22:44:02.225Z,16.60
2023-04-26T22:46:29.667Z,15.37
2023-04-26T22:48:57.051Z,17.50
2023-04-26T22:51:25.328Z,56.07
2023-04-26T22:53:52.594Z,96.70
2023-04-26T22:56:19.790Z,80.87
2023-04-26T22:58:47.515Z,45.27
2023-04-26T23:01:14.801Z,47.23
2023-04-26T23:03:42.085Z,14.30
2023-04-26T23:06:10.569Z,22.03
2023-04-26T23:08:38.130Z,18.63
2023-04-26T23:11:09.329Z,17.70
2023-04-26T23:13:37.052Z,14.90
2023-04-26T23:16:07.204Z,20.97
2023-04-26T23:18:34.763Z,63.90
2023-04-26T23:21:02.095Z,40.73
2023-04-26T23:23:29.450Z,53.47
2023-04-26T23:26:00.188Z,45.03
2023-04-26T23:28:27.387Z,43.87
2023-04-26T23:30:54.584Z,36.60
2023-04-26T23:33:22.894Z,35.60
2023-04-26T23:35:51.178Z,33.67
2023-04-26T23:38:18.679Z,34.13
2023-04-26T23:40:46.560Z,36.07
2023-04-26T23:43:14.316Z,40.07
2023-04-26T23:45:48.202Z,33.40
2023-04-26T23:48:16.699Z,28.27
2023-04-26T23:50:43.980Z,29.17
2023-04-26T23:53:11.602Z,24.30
2023-04-26T23:55:39.431Z,28.17
2023-04-26T23:58:06.672Z,31.17
